Daniel Field Augusta US
ICAO: KDNL
IATA: DNL
Category: Medium
Scheduled Services: No

Elevation: 423 ft
TransAlt. 18000 ft.

Airport Communications:
AUGUSTA APP/DEP:126.8
ASOS:135.275
CLNC DEL:128.1
MACON RDO:122.3
CTAF/UNICOM:123.05

KDNL Zoom In..

Runways:

(A) RW 05 length 4002 ft width 100 ft
---- / hdg 50

(B) RW 11 length 3733 ft width 100 ft
---- / hdg 108

(C) RW 23 length 4002 ft width 100 ft
---- / hdg 230

(D) RW 29 length 3733 ft width 100 ft
---- / hdg 288

Location; KDNL
Day. 20 / Time. 19.53 Zulu
* Altimeter: 29.95
* Temperature: 29° c. 84.2°f.
* Wind from: 010° Speed 10 kn.
Dewpoint: 22° c.
Visibility: 10 Statute Miles.
Clouds: Few 3000 ft.
Clouds: Broken 4900 ft.
Clouds: Overcast 6500 ft.

KDNL 201953Z AUTO 01010KT 10SM FEW030 BKN049 OVC065 29/22 A2995 RMK AO2 SLP136 T02940222


Wind From 010°
Speed 10 kn.

 
 
jpsmedia.com for Web Design worldairports.se 2018   terms of use